Whiting Field Naval Air Station North Airport
KNSE : now visible

Airfield :











YOU CAN JOIN US ON...

 
LOGIN :

Register | Disclaimer

   EN    FR    IT 

 









Legend :    VFR   Marginal VFR   IFR   Intensive IFR   Very Intensive IFR
Visi :
Ceiling :
>= 8 km
>= 3000ft
5 to 8 km
1000 to 3000 ft
1500m to 5 km
500 to 1000 ft
800 to 1500m
200 to 500 ft
< 800m
< 200 ft
Symbols :   Thunderstorms  Fog  Heavy snow  Heavy precipitations  Wind > 20 kt






- Airport Elevation : 199 ft


KNSE - Whiting Field Naval Air Station North

CURRENT METAR :
  • 061456Z 07003KT 10SM SCT040 BKN130 BKN250 15/10 A3017 RMK SLP205 T01500100

EXPIRED METARs :
  • 061356Z 09003KT 10SM BKN040 BKN150 BKN250 12/08 A3017 RMK SLP206 T01170083
  • 061256Z VRB03KT 10SM SCT035 BKN150 BKN250 09/06 A3017 RMK SLP203 T00940061

TAF TAF KNSE
Valid from the 06 at 15:00 until the 07 at 15:00 UTC


0615/0715 VRB06KT 9999 SCT040 BKN120 BKN250 QNH3011INS
TEMPO 0615/0617 BKN030
FM061700 19008KT 9999 VCSH BKN030 BKN120 BKN250 QNH3009INS
TEMPO 0617/0621 8000 -SHRA
FM062200 23005KT 9999 NSW SCT025 BKN100 QNH3010INS
FM070500 VRB03KT 9999 VCSH SCT010 BKN025 QNH3012INS
TEMPO 0709/0711 6000 -SHRA OVC010
FM071200 36006KT 8000 BR SCT005 BKN010 QNH3014INS T22/0620Z T12/0708Z FN20071



MET'MAP, your aeronautical weather chart ! - Copyright ORBIFLY December 2007 - Disclaimer

ORBIFLY MET'MAP TEAM :

Programming & Development : Alexandra Zaïnal
Concept & original design : Baudouin d'Aumeries
Assistance for programming : Marc-Olivier Méhu
Technical & hardware support : Manuel Goepfert

Contact : metmap@orbifly.com




SOURCES & CREDITS :

   NOAA       Earth
Advisory